createdAt,value
2018-08-19T00:02:18.409Z,100850.62
2018-08-19T00:05:02.392Z,100847.48
2018-08-19T00:07:31.586Z,100852.65
2018-08-19T00:10:00.806Z,100845.70
2018-08-19T00:12:37.028Z,100846.11
2018-08-19T00:15:07.262Z,100847.98
2018-08-19T00:17:36.616Z,100843.80
2018-08-19T00:20:07.663Z,100839.71
2018-08-19T00:22:36.824Z,100843.97
2018-08-19T00:25:06.573Z,100835.53
2018-08-19T00:27:38.239Z,100844.13
2018-08-19T00:30:09.364Z,100839.91
2018-08-19T00:32:38.551Z,100840.80
2018-08-19T00:35:07.792Z,100842.44
2018-08-19T00:37:37.027Z,100843.28
2018-08-19T00:40:10.231Z,100848.10
2018-08-19T00:42:39.514Z,100848.70
2018-08-19T00:45:08.852Z,100843.41
2018-08-19T00:47:38.101Z,100847.87
2018-08-19T00:50:07.320Z,100844.38
2018-08-19T00:52:37.141Z,100844.40
2018-08-19T00:55:06.318Z,100838.38
2018-08-19T00:57:35.961Z,100844.78
2018-08-19T01:00:05.504Z,100839.61
2018-08-19T01:02:34.734Z,100840.20
2018-08-19T01:05:04.096Z,100836.70
2018-08-19T01:07:35.265Z,100844.39
2018-08-19T01:10:04.596Z,100841.16
2018-08-19T01:12:33.779Z,100846.90
2018-08-19T01:15:02.998Z,100847.22
2018-08-19T01:17:37.222Z,100847.10
2018-08-19T01:20:08.945Z,100855.04
2018-08-19T01:22:42.409Z,100857.87
2018-08-19T01:25:13.593Z,100860.03
2018-08-19T01:27:42.816Z,100859.94
2018-08-19T01:30:15.908Z,100875.33
2018-08-19T01:32:45.202Z,100873.81
2018-08-19T01:35:14.452Z,100875.42
2018-08-19T01:37:43.733Z,100867.87
2018-08-19T01:40:16.770Z,100880.15
2018-08-19T01:42:46.516Z,100866.98
2018-08-19T01:45:15.873Z,100875.97
2018-08-19T01:47:45.024Z,100873.05
2018-08-19T01:50:15.914Z,100870.17
2018-08-19T01:52:45.838Z,100882.21
2018-08-19T01:55:15.030Z,100880.45
2018-08-19T01:57:47.363Z,100875.06
2018-08-19T02:00:17.329Z,100882.02
2018-08-19T02:02:57.929Z,100886.52
2018-08-19T02:05:27.448Z,100889.05
2018-08-19T02:07:58.768Z,100889.22
2018-08-19T02:10:28.987Z,100890.19
2018-08-19T02:12:58.814Z,100881.34
2018-08-19T02:15:29.277Z,100885.75
2018-08-19T02:18:00.379Z,100884.89
2018-08-19T02:20:41.644Z,100888.16
2018-08-19T02:23:12.082Z,100885.70
2018-08-19T02:25:46.172Z,100887.20
2018-08-19T02:28:19.846Z,100889.41
2018-08-19T02:30:54.444Z,100889.67
2018-08-19T02:33:24.447Z,100890.60
2018-08-19T02:35:57.761Z,100889.24
2018-08-19T02:38:26.938Z,100888.34
2018-08-19T02:40:56.234Z,100890.12
2018-08-19T02:43:25.405Z,100887.55
2018-08-19T02:45:54.589Z,100890.87
2018-08-19T02:48:44.884Z,100881.98
2018-08-19T02:51:21.083Z,100881.09
2018-08-19T02:53:51.290Z,100891.93
2018-08-19T02:56:21.005Z,100886.08
2018-08-19T02:58:50.160Z,100887.99
2018-08-19T03:01:19.388Z,100879.80
2018-08-19T03:03:48.529Z,100878.07
2018-08-19T03:06:17.723Z,100880.30
2018-08-19T03:08:51.973Z,100884.05
2018-08-19T03:11:22.305Z,100878.01
2018-08-19T03:13:51.465Z,100871.98
2018-08-19T03:16:20.603Z,100871.11
2018-08-19T03:18:51.315Z,100870.31
2018-08-19T03:21:21.126Z,100870.64
2018-08-19T03:23:52.935Z,100869.84
2018-08-19T03:26:22.094Z,100862.63
2018-08-19T03:28:51.217Z,100861.96
2018-08-19T03:31:20.372Z,100862.30
2018-08-19T03:33:49.481Z,100862.03
2018-08-19T03:36:18.658Z,100866.61
2018-08-19T03:38:47.841Z,100864.94
2018-08-19T03:41:17.046Z,100864.01
2018-08-19T03:43:55.065Z,100860.53
2018-08-19T03:46:24.277Z,100865.46
2018-08-19T03:48:53.414Z,100863.91
2018-08-19T03:51:22.591Z,100861.55
2018-08-19T03:53:51.703Z,100858.02
2018-08-19T03:56:26.690Z,100858.28
2018-08-19T03:59:00.133Z,100866.50
2018-08-19T04:01:43.090Z,100865.15
2018-08-19T04:04:14.578Z,100867.90
2018-08-19T04:06:44.075Z,100870.19
2018-08-19T04:09:13.273Z,100870.08
2018-08-19T04:11:42.540Z,100874.50
2018-08-19T04:14:28.963Z,100872.70
2018-08-19T04:17:00.180Z,100869.23
2018-08-19T04:19:29.699Z,100870.45
2018-08-19T04:22:01.449Z,100869.80
2018-08-19T04:24:31.197Z,100867.90
2018-08-19T04:27:04.300Z,100869.02
2018-08-19T04:29:34.538Z,100866.59
2018-08-19T04:32:04.663Z,100868.90
2018-08-19T04:34:33.963Z,100857.72
2018-08-19T04:37:03.226Z,100870.29
2018-08-19T04:39:32.462Z,100866.67
2018-08-19T04:42:01.740Z,100867.91
2018-08-19T04:44:31.022Z,100868.88
2018-08-19T04:47:00.414Z,100868.54
2018-08-19T04:49:30.039Z,100866.40
2018-08-19T04:51:59.488Z,100874.77
2018-08-19T04:54:28.888Z,100872.55
2018-08-19T04:56:58.167Z,100867.27
2018-08-19T04:59:27.534Z,100868.02
2018-08-19T05:01:56.750Z,100867.14
2018-08-19T05:04:26.140Z,100879.16
2018-08-19T05:06:55.446Z,100873.32
2018-08-19T05:09:24.760Z,100879.74
2018-08-19T05:11:54.081Z,100874.80
2018-08-19T05:14:23.406Z,100884.56
2018-08-19T05:16:52.740Z,100886.88
2018-08-19T05:19:21.980Z,100890.38
2018-08-19T05:21:51.603Z,100886.92
2018-08-19T05:24:20.890Z,100888.64
2018-08-19T05:26:53.957Z,100892.28
2018-08-19T05:29:23.274Z,100893.38
2018-08-19T05:31:59.008Z,100895.66
2018-08-19T05:34:36.364Z,100895.30
2018-08-19T05:37:05.693Z,100895.89
2018-08-19T05:39:35.069Z,100892.59
2018-08-19T05:42:12.543Z,100892.13
2018-08-19T05:44:42.478Z,100892.72
2018-08-19T05:47:16.727Z,100893.99
2018-08-19T05:49:47.190Z,100890.33
2018-08-19T05:52:18.546Z,100896.38
2018-08-19T05:54:52.907Z,100893.23
2018-08-19T05:57:22.274Z,100894.55
2018-08-19T05:59:52.651Z,100895.95
2018-08-19T06:02:33.741Z,100891.79
2018-08-19T06:05:04.188Z,100898.67
2018-08-19T06:07:33.391Z,100893.18
2018-08-19T06:10:02.744Z,100898.27
2018-08-19T06:12:32.119Z,100901.06
2018-08-19T06:15:02.431Z,100895.06
2018-08-19T06:17:31.652Z,100899.10
2018-08-19T06:20:00.977Z,100898.08
2018-08-19T06:22:39.003Z,100890.69
2018-08-19T06:25:08.530Z,100891.55
2018-08-19T06:27:52.140Z,100902.86
2018-08-19T06:30:21.388Z,100895.34
2018-08-19T06:32:50.587Z,100897.27
2018-08-19T06:35:19.872Z,100899.97
2018-08-19T06:37:49.015Z,100897.50
2018-08-19T06:40:19.477Z,100902.19
2018-08-19T06:42:54.820Z,100905.81
2018-08-19T06:45:24.106Z,100901.33
2018-08-19T06:48:12.973Z,100903.50
2018-08-19T06:50:42.270Z,100896.76
2018-08-19T06:53:15.602Z,100903.56
2018-08-19T06:55:44.947Z,100905.48
2018-08-19T06:58:14.273Z,100911.52
2018-08-19T07:00:43.743Z,100904.38
2018-08-19T07:03:12.980Z,100904.07
2018-08-19T07:05:42.222Z,100907.09
2018-08-19T07:08:11.481Z,100900.95
2018-08-19T07:10:42.229Z,100911.50
2018-08-19T07:13:13.145Z,100911.89
2018-08-19T07:15:43.629Z,100919.92
2018-08-19T07:18:15.767Z,100914.53
2018-08-19T07:20:45.596Z,100914.91
2018-08-19T07:23:15.687Z,100914.02
2018-08-19T07:25:46.338Z,100914.09
2018-08-19T07:28:17.397Z,100911.07
2018-08-19T07:30:46.939Z,100919.80
2018-08-19T07:33:17.222Z,100914.11
2018-08-19T07:35:46.838Z,100909.91
2018-08-19T07:38:16.425Z,100915.32
2018-08-19T07:40:45.975Z,100915.42
2018-08-19T07:43:16.103Z,100912.44
2018-08-19T07:45:46.326Z,100919.58
2018-08-19T07:48:15.981Z,100915.25
2018-08-19T07:50:45.937Z,100915.25
2018-08-19T07:53:15.582Z,100915.64
2018-08-19T07:55:45.326Z,100917.53
2018-08-19T07:58:15.483Z,100913.64
2018-08-19T08:00:44.693Z,100914.71
2018-08-19T08:03:13.922Z,100908.56
2018-08-19T08:05:48.342Z,100909.22
2018-08-19T08:08:17.686Z,100909.33
2018-08-19T08:10:47.060Z,100900.81
2018-08-19T08:13:16.461Z,100909.80
2018-08-19T08:15:51.074Z,100904.46
2018-08-19T08:18:20.336Z,100903.25
2018-08-19T08:20:49.808Z,100900.78
2018-08-19T08:23:25.292Z,100904.13
2018-08-19T08:25:55.069Z,100904.22
2018-08-19T08:28:24.739Z,100903.05
2018-08-19T08:30:54.377Z,100909.06
2018-08-19T08:33:24.085Z,100898.22
2018-08-19T08:35:56.159Z,100911.47
2018-08-19T08:38:25.455Z,100900.28
2018-08-19T08:40:56.025Z,100902.71
2018-08-19T08:43:25.288Z,100902.25
2018-08-19T08:45:57.090Z,100901.70
2018-08-19T08:48:28.082Z,100909.09
2018-08-19T08:50:57.761Z,100907.84
2018-08-19T08:53:28.902Z,100907.31
2018-08-19T08:55:58.564Z,100908.26
2018-08-19T08:58:27.921Z,100904.75
2018-08-19T09:00:57.805Z,100898.23
2018-08-19T09:03:27.179Z,100896.66
2018-08-19T09:05:56.655Z,100896.44
2018-08-19T09:08:25.956Z,100889.42
2018-08-19T09:10:55.402Z,100885.98
2018-08-19T09:13:24.725Z,100887.06
2018-08-19T09:15:54.443Z,100895.06
2018-08-19T09:18:23.785Z,100885.75
2018-08-19T09:20:53.116Z,100882.84
2018-08-19T09:23:22.459Z,100883.03
2018-08-19T09:25:51.672Z,100883.19
2018-08-19T09:28:21.061Z,100883.48
2018-08-19T09:30:50.394Z,100884.01
2018-08-19T09:33:19.582Z,100878.73
2018-08-19T09:35:49.100Z,100874.55
2018-08-19T09:38:20.637Z,100873.20
2018-08-19T09:40:50.058Z,100867.23
2018-08-19T09:43:19.622Z,100867.49
2018-08-19T09:45:49.430Z,100860.20
2018-08-19T09:48:18.950Z,100869.19
2018-08-19T09:50:48.255Z,100864.08
2018-08-19T09:53:17.555Z,100852.88
2018-08-19T09:56:19.479Z,100853.44
2018-08-19T09:58:52.673Z,100852.25
2018-08-19T10:01:45.377Z,100849.03
2018-08-19T10:04:18.869Z,100853.87
2018-08-19T10:06:50.688Z,100854.34
2018-08-19T10:09:20.021Z,100844.50
2018-08-19T10:11:49.320Z,100849.36
2018-08-19T10:14:18.634Z,100841.28
2018-08-19T10:16:48.343Z,100839.19
2018-08-19T10:19:17.565Z,100833.05
2018-08-19T10:21:46.880Z,100836.28
2018-08-19T10:24:26.304Z,100833.78
2018-08-19T10:26:55.969Z,100836.06
2018-08-19T10:29:25.551Z,100826.17
2018-08-19T10:32:14.096Z,100825.35
2018-08-19T10:34:48.535Z,100828.81
2018-08-19T10:37:19.274Z,100831.89
2018-08-19T10:39:48.607Z,100830.92
2018-08-19T10:42:23.799Z,100816.89
2018-08-19T10:44:53.684Z,100815.77
2018-08-19T10:47:22.899Z,100811.69
2018-08-19T10:50:00.067Z,100809.47
2018-08-19T10:52:30.873Z,100811.42
2018-08-19T10:55:01.388Z,100806.88
2018-08-19T10:57:30.894Z,100804.54
2018-08-19T11:00:00.576Z,100801.11
2018-08-19T11:02:29.918Z,100798.16
2018-08-19T11:05:00.432Z,100793.50
2018-08-19T11:07:30.623Z,100788.31
2018-08-19T11:10:17.957Z,100790.72
2018-08-19T11:12:49.126Z,100787.47
2018-08-19T11:15:30.295Z,100779.63
2018-08-19T11:18:13.695Z,100773.84
2018-08-19T11:20:42.985Z,100765.50
2018-08-19T11:23:16.337Z,100769.59
2018-08-19T11:25:45.578Z,100764.19
2018-08-19T11:28:41.915Z,100762.22
2018-08-19T11:31:20.310Z,100762.80
2018-08-19T11:33:50.062Z,100754.58
2018-08-19T11:36:19.548Z,100749.89
2018-08-19T11:38:52.522Z,100743.48
2018-08-19T11:41:22.040Z,100740.52
2018-08-19T11:43:51.811Z,100731.07
2018-08-19T11:46:21.087Z,100727.88
2018-08-19T11:48:57.309Z,100721.70
2018-08-19T11:51:48.120Z,100722.42
2018-08-19T11:54:18.456Z,100718.52
2018-08-19T11:57:07.220Z,100714.80
2018-08-19T11:59:38.411Z,100723.15
2018-08-19T12:02:10.419Z,100715.28
2018-08-19T12:04:39.798Z,100710.34
2018-08-19T12:07:09.137Z,100709.78
2018-08-19T12:09:39.310Z,100700.95
2018-08-19T12:12:08.684Z,100694.42
2018-08-19T12:14:38.237Z,100701.46
2018-08-19T12:17:09.107Z,100701.17
2018-08-19T12:19:41.335Z,100697.00
2018-08-19T12:22:11.301Z,100694.26
2018-08-19T12:24:42.800Z,100695.05
2018-08-19T12:27:13.167Z,100692.61
2018-08-19T12:29:43.406Z,100689.28
2018-08-19T12:32:24.403Z,100688.77
2018-08-19T12:35:01.606Z,100681.75
2018-08-19T12:37:33.004Z,100676.86
2018-08-19T12:40:02.444Z,100675.53
2018-08-19T12:42:32.620Z,100681.55
2018-08-19T12:45:06.739Z,100671.89
2018-08-19T12:47:36.734Z,100677.37
2018-08-19T12:50:13.489Z,100660.27
2018-08-19T12:52:42.826Z,100661.45
2018-08-19T12:55:14.897Z,100656.97
2018-08-19T12:57:44.772Z,100650.09
2018-08-19T13:00:19.140Z,100645.98
2018-08-19T13:02:50.184Z,100647.67
2018-08-19T13:05:19.927Z,100638.95
2018-08-19T13:07:49.245Z,100642.06
2018-08-19T13:10:18.973Z,100648.08
2018-08-19T13:12:52.272Z,100637.75
2018-08-19T13:15:21.859Z,100628.52
2018-08-19T13:17:51.214Z,100637.27
2018-08-19T13:20:20.543Z,100635.48
2018-08-19T13:22:54.819Z,100621.50
2018-08-19T13:25:25.469Z,100608.98
2018-08-19T13:27:54.748Z,100606.45
2018-08-19T13:30:24.416Z,100605.02
2018-08-19T13:32:53.880Z,100607.67
2018-08-19T13:35:23.505Z,100597.79
2018-08-19T13:37:53.295Z,100606.37
2018-08-19T13:40:22.484Z,100588.80
2018-08-19T13:42:51.747Z,100587.07
2018-08-19T13:45:22.091Z,100591.63
2018-08-19T13:47:53.231Z,100580.61
2018-08-19T13:50:22.578Z,100580.45
2018-08-19T13:52:51.709Z,100581.38
2018-08-19T13:55:21.658Z,100564.59
2018-08-19T13:57:51.071Z,100563.92
2018-08-19T14:00:22.486Z,100567.53
2018-08-19T14:02:52.061Z,100563.66
2018-08-19T14:05:21.342Z,100563.16
2018-08-19T14:07:50.617Z,100568.88
2018-08-19T14:10:19.809Z,100565.04
2018-08-19T14:12:48.934Z,100565.33
2018-08-19T14:15:18.128Z,100560.00
2018-08-19T14:17:47.362Z,100554.84
2018-08-19T14:20:16.479Z,100554.29
2018-08-19T14:22:45.656Z,100547.25
2018-08-19T14:25:15.076Z,100543.75
2018-08-19T14:27:44.285Z,100548.33
2018-08-19T14:30:13.862Z,100547.05
2018-08-19T14:32:45.141Z,100553.00
2018-08-19T14:35:14.636Z,100545.81
2018-08-19T14:37:44.256Z,100548.33
2018-08-19T14:40:17.641Z,100544.16
2018-08-19T14:42:47.054Z,100543.70
2018-08-19T14:45:16.416Z,100536.72
2018-08-19T14:47:45.613Z,100534.55
2018-08-19T14:50:18.528Z,100530.56
2018-08-19T14:52:47.700Z,100529.84
2018-08-19T14:55:17.032Z,100522.59
2018-08-19T14:57:46.234Z,100523.11
2018-08-19T15:00:17.132Z,100522.83
2018-08-19T15:02:46.392Z,100520.00
2018-08-19T15:05:19.029Z,100518.94
2018-08-19T15:07:49.453Z,100515.56
2018-08-19T15:10:20.589Z,100510.91
2018-08-19T15:12:49.854Z,100513.84
2018-08-19T15:15:19.214Z,100516.60
2018-08-19T15:17:53.453Z,100510.30
2018-08-19T15:20:27.957Z,100516.04
2018-08-19T15:23:09.141Z,100507.02
2018-08-19T15:25:38.698Z,100507.00
2018-08-19T15:28:07.945Z,100511.96
2018-08-19T15:30:39.953Z,100495.44
2018-08-19T15:33:09.819Z,100496.50
2018-08-19T15:35:39.055Z,100494.10
2018-08-19T15:38:08.500Z,100498.28
2018-08-19T15:40:44.514Z,100503.16
2018-08-19T15:43:14.130Z,100503.52
2018-08-19T15:45:44.104Z,100504.69
2018-08-19T15:48:13.443Z,100495.80
2018-08-19T15:50:42.685Z,100494.77
2018-08-19T15:53:11.936Z,100503.73
2018-08-19T15:55:41.198Z,100500.64
2018-08-19T15:58:10.479Z,100502.47
2018-08-19T16:00:41.554Z,100501.22
2018-08-19T16:03:12.040Z,100495.36
2018-08-19T16:05:41.320Z,100490.17
2018-08-19T16:08:10.505Z,100494.55
2018-08-19T16:10:39.910Z,100486.02
2018-08-19T16:13:10.632Z,100480.36
2018-08-19T16:15:39.953Z,100482.97
2018-08-19T16:18:09.918Z,100482.14
2018-08-19T16:20:39.255Z,100479.42
2018-08-19T16:23:08.670Z,100477.72
2018-08-19T16:25:37.991Z,100472.66
2018-08-19T16:28:07.227Z,100472.98
2018-08-19T16:30:36.439Z,100476.99
2018-08-19T16:33:05.669Z,100467.00
2018-08-19T16:35:34.871Z,100464.39
2018-08-19T16:38:04.013Z,100466.64
2018-08-19T16:40:33.488Z,100466.91
2018-08-19T16:43:02.748Z,100468.66
2018-08-19T16:45:31.936Z,100463.70
2018-08-19T16:48:01.184Z,100465.37
2018-08-19T16:50:30.558Z,100470.09
2018-08-19T16:52:59.758Z,100468.42
2018-08-19T16:55:28.962Z,100470.08
2018-08-19T16:57:58.202Z,100466.49
2018-08-19T17:00:27.329Z,100462.88
2018-08-19T17:02:56.518Z,100464.00
2018-08-19T17:05:31.891Z,100456.77
2018-08-19T17:08:01.130Z,100455.16
2018-08-19T17:10:30.860Z,100459.22
2018-08-19T17:13:00.112Z,100463.94
2018-08-19T17:15:29.791Z,100470.00
2018-08-19T17:17:59.578Z,100460.32
2018-08-19T17:20:28.837Z,100458.59
2018-08-19T17:22:58.074Z,100462.69
2018-08-19T17:25:27.345Z,100468.33
2018-08-19T17:27:56.538Z,100466.70
2018-08-19T17:30:25.790Z,100473.30
2018-08-19T17:32:58.888Z,100472.09
2018-08-19T17:35:28.178Z,100472.74
2018-08-19T17:37:57.406Z,100462.93
2018-08-19T17:40:26.733Z,100471.75
2018-08-19T17:42:55.995Z,100466.97
2018-08-19T17:45:25.179Z,100474.28
2018-08-19T17:47:54.873Z,100475.10
2018-08-19T17:50:26.555Z,100468.03
2018-08-19T17:52:58.414Z,100467.75
2018-08-19T17:55:27.669Z,100468.65
2018-08-19T17:57:58.376Z,100472.28
2018-08-19T18:00:27.477Z,100469.01
2018-08-19T18:02:56.664Z,100474.02
2018-08-19T18:05:25.967Z,100474.85
2018-08-19T18:07:56.150Z,100478.40
2018-08-19T18:10:25.485Z,100479.21
2018-08-19T18:12:54.688Z,100482.02
2018-08-19T18:15:23.975Z,100473.50
2018-08-19T18:18:01.933Z,100471.00
2018-08-19T18:20:36.636Z,100473.03
2018-08-19T18:23:14.976Z,100475.80
2018-08-19T18:25:47.992Z,100471.02
2018-08-19T18:28:24.259Z,100477.18
2018-08-19T18:31:04.025Z,100481.04
2018-08-19T18:33:33.223Z,100478.81
2018-08-19T18:36:02.424Z,100477.91
2018-08-19T18:38:34.897Z,100482.06
2018-08-19T18:41:04.037Z,100487.25
2018-08-19T18:43:33.370Z,100493.06
2018-08-19T18:46:02.677Z,100486.97
2018-08-19T18:48:31.920Z,100488.11
2018-08-19T18:51:01.033Z,100491.00
2018-08-19T18:53:30.220Z,100488.70
2018-08-19T18:55:59.497Z,100491.19
2018-08-19T18:58:28.629Z,100490.52
2018-08-19T19:00:59.981Z,100494.25
2018-08-19T19:03:29.174Z,100493.45
2018-08-19T19:05:58.336Z,100498.11
2018-08-19T19:08:27.458Z,100492.82
2018-08-19T19:11:01.655Z,100494.37
2018-08-19T19:13:30.879Z,100497.33
2018-08-19T19:16:00.013Z,100495.09
2018-08-19T19:18:29.250Z,100495.69
2018-08-19T19:21:03.333Z,100502.44
2018-08-19T19:23:34.757Z,100506.94
2018-08-19T19:26:05.026Z,100509.47
2018-08-19T19:28:34.260Z,100513.75
2018-08-19T19:31:08.403Z,100512.63
2018-08-19T19:33:37.958Z,100518.48
2018-08-19T19:36:22.549Z,100522.28
2018-08-19T19:38:58.123Z,100514.87
2018-08-19T19:41:32.568Z,100517.52
2018-08-19T19:44:16.363Z,100521.81
2018-08-19T19:46:45.556Z,100511.55
2018-08-19T19:49:14.739Z,100512.86
2018-08-19T19:51:47.973Z,100519.91
2018-08-19T19:54:17.172Z,100519.31
2018-08-19T19:56:46.383Z,100521.30
2018-08-19T19:59:15.562Z,100517.95
2018-08-19T20:01:44.748Z,100524.38
2018-08-19T20:04:13.928Z,100519.91
2018-08-19T20:06:43.043Z,100522.89
2018-08-19T20:09:12.247Z,100528.48
2018-08-19T20:11:41.326Z,100528.19
2018-08-19T20:14:10.540Z,100530.23
2018-08-19T20:16:39.791Z,100534.56
2018-08-19T20:19:09.115Z,100527.81
2018-08-19T20:21:38.347Z,100529.88
2018-08-19T20:24:07.542Z,100542.65
2018-08-19T20:26:36.753Z,100540.83
2018-08-19T20:29:06.004Z,100540.20
2018-08-19T20:31:35.191Z,100542.22
2018-08-19T20:34:04.457Z,100543.49
2018-08-19T20:36:33.672Z,100549.27
2018-08-19T20:39:06.752Z,100544.33
2018-08-19T20:41:36.000Z,100547.84
2018-08-19T20:44:07.597Z,100540.61
2018-08-19T20:46:40.143Z,100541.44
2018-08-19T20:49:09.325Z,100545.61
2018-08-19T20:51:38.545Z,100542.33
2018-08-19T20:54:07.807Z,100545.98
2018-08-19T20:56:36.956Z,100545.91
2018-08-19T20:59:06.141Z,100545.31
2018-08-19T21:01:35.222Z,100540.62
2018-08-19T21:04:04.357Z,100540.12
2018-08-19T21:06:33.518Z,100538.75
2018-08-19T21:09:02.706Z,100544.14
2018-08-19T21:11:31.824Z,100541.22
2018-08-19T21:14:01.016Z,100548.59
2018-08-19T21:16:30.996Z,100547.48
2018-08-19T21:19:01.791Z,100543.55
2018-08-19T21:21:30.897Z,100544.56
2018-08-19T21:24:00.021Z,100548.11
2018-08-19T21:26:29.178Z,100544.20
2018-08-19T21:29:03.918Z,100553.34
2018-08-19T21:31:34.274Z,100554.70
2018-08-19T21:34:03.602Z,100556.69
2018-08-19T21:36:32.920Z,100558.30
2018-08-19T21:39:02.320Z,100564.59
2018-08-19T21:41:48.688Z,100573.24
2018-08-19T21:44:18.625Z,100572.86
2018-08-19T21:46:47.881Z,100579.01
2018-08-19T21:49:17.049Z,100579.08
2018-08-19T21:51:46.163Z,100572.56
2018-08-19T21:54:16.473Z,100583.80
2018-08-19T21:56:45.665Z,100578.47
2018-08-19T21:59:30.240Z,100575.30
2018-08-19T22:02:00.286Z,100578.25
2018-08-19T22:04:30.077Z,100572.71
2018-08-19T22:06:59.179Z,100572.44
2018-08-19T22:09:37.189Z,100575.31
2018-08-19T22:12:07.692Z,100570.16
2018-08-19T22:14:36.853Z,100574.67
2018-08-19T22:17:09.616Z,100573.42
2018-08-19T22:19:39.436Z,100562.95
2018-08-19T22:22:08.807Z,100569.11
2018-08-19T22:24:38.262Z,100567.14
2018-08-19T22:27:16.675Z,100575.85
2018-08-19T22:29:45.997Z,100576.39
2018-08-19T22:32:15.136Z,100575.09
2018-08-19T22:34:44.400Z,100577.89
2018-08-19T22:37:13.683Z,100571.28
2018-08-19T22:39:42.919Z,100574.80
2018-08-19T22:42:12.025Z,100571.50
2018-08-19T22:44:41.234Z,100567.80
2018-08-19T22:47:10.345Z,100573.55
2018-08-19T22:49:39.462Z,100564.41
2018-08-19T22:52:21.430Z,100563.80
2018-08-19T22:54:54.833Z,100567.64
2018-08-19T22:57:24.020Z,100568.42
2018-08-19T22:59:53.474Z,100561.55
2018-08-19T23:02:22.738Z,100565.75
2018-08-19T23:04:51.946Z,100566.08
2018-08-19T23:07:21.073Z,100568.36
2018-08-19T23:09:50.212Z,100564.54
2018-08-19T23:12:19.340Z,100562.83
2018-08-19T23:14:59.487Z,100565.60
2018-08-19T23:17:28.605Z,100568.41
2018-08-19T23:19:57.723Z,100560.52
2018-08-19T23:22:26.771Z,100561.20
2018-08-19T23:24:55.888Z,100566.83
2018-08-19T23:27:25.020Z,100575.98
2018-08-19T23:29:54.165Z,100572.09
2018-08-19T23:32:23.210Z,100575.84
2018-08-19T23:34:52.414Z,100576.01
2018-08-19T23:37:21.559Z,100571.50
2018-08-19T23:39:50.728Z,100571.23
2018-08-19T23:42:19.851Z,100570.83
2018-08-19T23:44:49.038Z,100569.55
2018-08-19T23:47:18.089Z,100570.92
2018-08-19T23:49:47.244Z,100575.40
2018-08-19T23:52:16.578Z,100576.53
2018-08-19T23:54:45.734Z,100581.11
2018-08-19T23:57:15.554Z,100585.41
2018-08-19T23:59:46.346Z,100586.73
